Ritchie, South Africa
Current Conditions -  °F | °C
As of 1:00 AM on Saturday 01 Nov 2014 (Local Time) from FAKM Reporting Station
NA  
Wind Chill: 72°   Ceiling: NA
Heat Index: 72°   Visibility: NA
Dew Point: 32°   Wind: 6mph
Humidity: 23%   Direction: 350°N
Pressure: 29.97"   Gusts: NA
Location:  29.04°S, 24.6°E
Report Text: FAKM 312300Z AUTO 35005KT //// // ////// 22/00 Q1015
Loading
Personal Weather Stations






























Interactive Weather Map
Tropical Storm Tracking
New forecast layout! Learn more

10-Day Weather Forecast

Advertisements
Track Severe Weather on mobile